sensor_id;sensor_type;location;lat;lon;timestamp;pressure;altitude;pressure_sealevel;temperature;humidity
71306;BME280;59097;46.858;18.632;2023-02-28T00:00:42;101495.38;;;0.55;72.99
71306;BME280;59097;46.858;18.632;2023-02-28T00:03:11;101524.38;;;0.51;73.04
71306;BME280;59097;46.858;18.632;2023-02-28T00:06:08;101526.94;;;0.65;72.22
71306;BME280;59097;46.858;18.632;2023-02-28T00:08:36;101527.12;;;0.62;73.16
71306;BME280;59097;46.858;18.632;2023-02-28T00:11:03;101538.34;;;0.50;73.98
71306;BME280;59097;46.858;18.632;2023-02-28T00:13:31;101537.97;;;0.56;73.99
71306;BME280;59097;46.858;18.632;2023-02-28T00:16:06;101539.78;;;1.07;73.12
71306;BME280;59097;46.858;18.632;2023-02-28T00:18:35;101539.78;;;1.07;73.12
71306;BME280;59097;46.858;18.632;2023-02-28T00:21:04;101552.59;;;0.58;75.84
71306;BME280;59097;46.858;18.632;2023-02-28T00:23:33;101548.78;;;0.50;76.53
71306;BME280;59097;46.858;18.632;2023-02-28T00:26:01;101548.91;;;0.34;77.92
71306;BME280;59097;46.858;18.632;2023-02-28T00:28:29;101559.59;;;0.44;78.24
71306;BME280;59097;46.858;18.632;2023-02-28T00:30:59;101550.84;;;0.45;76.52
71306;BME280;59097;46.858;18.632;2023-02-28T00:33:29;101513.53;;;0.30;74.91
71306;BME280;59097;46.858;18.632;2023-02-28T00:36:07;101563.34;;;0.40;74.76
71306;BME280;59097;46.858;18.632;2023-02-28T00:38:48;101558.31;;;0.51;74.41
71306;BME280;59097;46.858;18.632;2023-02-28T00:41:15;101570.44;;;0.38;73.72
71306;BME280;59097;46.858;18.632;2023-02-28T00:43:41;101566.41;;;0.46;74.86
71306;BME280;59097;46.858;18.632;2023-02-28T00:46:07;101566.31;;;0.48;74.48
71306;BME280;59097;46.858;18.632;2023-02-28T00:48:34;101563.09;;;0.30;74.80
71306;BME280;59097;46.858;18.632;2023-02-28T00:51:01;101538.84;;;0.42;75.26
71306;BME280;59097;46.858;18.632;2023-02-28T00:53:34;101563.22;;;1.09;73.44
71306;BME280;59097;46.858;18.632;2023-02-28T00:56:03;101563.22;;;1.09;73.44
71306;BME280;59097;46.858;18.632;2023-02-28T00:58:31;101522.56;;;0.25;75.38
71306;BME280;59097;46.858;18.632;2023-02-28T01:01:00;101558.91;;;0.28;74.63
71306;BME280;59097;46.858;18.632;2023-02-28T01:03:31;101559.16;;;0.37;76.06
71306;BME280;59097;46.858;18.632;2023-02-28T01:05:59;101552.19;;;0.24;74.41
71306;BME280;59097;46.858;18.632;2023-02-28T01:08:27;101549.75;;;0.21;75.26
71306;BME280;59097;46.858;18.632;2023-02-28T01:10:56;101557.78;;;0.32;75.23
71306;BME280;59097;46.858;18.632;2023-02-28T01:14:04;101552.84;;;0.27;75.88
71306;BME280;59097;46.858;18.632;2023-02-28T01:17:02;101530.94;;;0.30;75.73
71306;BME280;59097;46.858;18.632;2023-02-28T01:19:44;101530.69;;;0.20;75.98
71306;BME280;59097;46.858;18.632;2023-02-28T01:22:10;101537.56;;;0.21;75.81
71306;BME280;59097;46.858;18.632;2023-02-28T01:24:37;101549.84;;;0.33;76.49
71306;BME280;59097;46.858;18.632;2023-02-28T01:27:03;101545.47;;;0.34;76.28
71306;BME280;59097;46.858;18.632;2023-02-28T01:29:30;101553.66;;;0.42;76.32
71306;BME280;59097;46.858;18.632;2023-02-28T01:32:02;101498.53;;;0.60;74.66
71306;BME280;59097;46.858;18.632;2023-02-28T01:34:33;101498.53;;;0.60;74.66
71306;BME280;59097;46.858;18.632;2023-02-28T01:37:03;101527.00;;;0.37;75.79
71306;BME280;59097;46.858;18.632;2023-02-28T01:39:32;101542.91;;;0.46;76.44
71306;BME280;59097;46.858;18.632;2023-02-28T01:42:01;101532.97;;;0.39;75.71
71306;BME280;59097;46.858;18.632;2023-02-28T01:44:55;101542.00;;;0.47;75.13
71306;BME280;59097;46.858;18.632;2023-02-28T01:47:38;101552.25;;;0.36;75.61
71306;BME280;59097;46.858;18.632;2023-02-28T01:50:26;101560.00;;;0.38;76.19
71306;BME280;59097;46.858;18.632;2023-02-28T01:53:19;101544.00;;;0.30;75.81
71306;BME280;59097;46.858;18.632;2023-02-28T01:55:50;101555.41;;;0.41;75.25
71306;BME280;59097;46.858;18.632;2023-02-28T01:58:18;101562.69;;;0.36;75.55
71306;BME280;59097;46.858;18.632;2023-02-28T02:00:44;101553.69;;;0.28;74.85
71306;BME280;59097;46.858;18.632;2023-02-28T02:03:14;101539.16;;;0.24;76.00
71306;BME280;59097;46.858;18.632;2023-02-28T02:05:46;101550.41;;;0.38;75.68
71306;BME280;59097;46.858;18.632;2023-02-28T02:08:22;101548.75;;;0.91;74.25
71306;BME280;59097;46.858;18.632;2023-02-28T02:10:54;101548.75;;;0.91;74.25
71306;BME280;59097;46.858;18.632;2023-02-28T02:13:47;101540.91;;;0.23;75.88
71306;BME280;59097;46.858;18.632;2023-02-28T02:27:33;101554.25;;;0.19;79.19
71306;BME280;59097;46.858;18.632;2023-02-28T02:33:28;101551.63;;;0.33;78.31
71306;BME280;59097;46.858;18.632;2023-02-28T02:39:02;101542.72;;;1.03;76.41
71306;BME280;59097;46.858;18.632;2023-02-28T02:41:41;101542.72;;;1.03;76.41
71306;BME280;59097;46.858;18.632;2023-02-28T02:44:26;101548.25;;;0.45;78.03
71306;BME280;59097;46.858;18.632;2023-02-28T02:47:19;101542.09;;;0.46;77.90
71306;BME280;59097;46.858;18.632;2023-02-28T02:49:51;101531.94;;;0.41;77.54
71306;BME280;59097;46.858;18.632;2023-02-28T02:52:25;101531.56;;;0.47;77.43
71306;BME280;59097;46.858;18.632;2023-02-28T02:55:14;101543.81;;;0.59;77.69
71306;BME280;59097;46.858;18.632;2023-02-28T02:57:47;101547.09;;;0.63;77.53
71306;BME280;59097;46.858;18.632;2023-02-28T03:00:17;101542.44;;;0.54;78.55
71306;BME280;59097;46.858;18.632;2023-02-28T03:02:46;101533.50;;;0.44;78.01
71306;BME280;59097;46.858;18.632;2023-02-28T03:05:20;101541.25;;;0.45;77.69
71306;BME280;59097;46.858;18.632;2023-02-28T03:07:48;101544.53;;;0.35;77.03
71306;BME280;59097;46.858;18.632;2023-02-28T03:10:32;101534.38;;;1.10;75.30
71306;BME280;59097;46.858;18.632;2023-02-28T03:18:29;101538.59;;;0.33;77.02
71306;BME280;59097;46.858;18.632;2023-02-28T03:24:03;101526.59;;;0.16;77.11
71306;BME280;59097;46.858;18.632;2023-02-28T03:26:36;101543.03;;;0.31;77.82
71306;BME280;59097;46.858;18.632;2023-02-28T03:29:33;101543.62;;;0.22;77.39
71306;BME280;59097;46.858;18.632;2023-02-28T03:32:36;101540.84;;;0.25;77.61
71306;BME280;59097;46.858;18.632;2023-02-28T03:35:14;101541.50;;;0.14;78.50
71306;BME280;59097;46.858;18.632;2023-02-28T03:37:52;101534.34;;;0.18;79.36
71306;BME280;59097;46.858;18.632;2023-02-28T03:40:25;101504.06;;;0.01;78.57
71306;BME280;59097;46.858;18.632;2023-02-28T03:42:59;101539.88;;;0.26;78.58
71306;BME280;59097;46.858;18.632;2023-02-28T03:45:37;101534.66;;;0.93;76.11
71306;BME280;59097;46.858;18.632;2023-02-28T03:48:31;101534.66;;;0.93;76.11
71306;BME280;59097;46.858;18.632;2023-02-28T03:51:03;101539.53;;;0.18;78.18
71306;BME280;59097;46.858;18.632;2023-02-28T03:53:39;101529.25;;;0.29;78.01
71306;BME280;59097;46.858;18.632;2023-02-28T03:56:16;101537.44;;;0.37;78.12
71306;BME280;59097;46.858;18.632;2023-02-28T03:59:15;101534.47;;;0.29;78.04
71306;BME280;59097;46.858;18.632;2023-02-28T04:01:45;101537.94;;;0.29;78.86
71306;BME280;59097;46.858;18.632;2023-02-28T04:04:14;101544.91;;;0.29;78.58
71306;BME280;59097;46.858;18.632;2023-02-28T04:06:42;101537.81;;;0.31;78.57
71306;BME280;59097;46.858;18.632;2023-02-28T04:09:11;101545.75;;;0.29;78.34
71306;BME280;59097;46.858;18.632;2023-02-28T04:11:40;101547.44;;;0.30;78.84
71306;BME280;59097;46.858;18.632;2023-02-28T04:14:09;101551.25;;;0.11;78.93
71306;BME280;59097;46.858;18.632;2023-02-28T04:16:42;101545.94;;;0.67;76.40
71306;BME280;59097;46.858;18.632;2023-02-28T04:19:12;101545.94;;;0.67;76.40
71306;BME280;59097;46.858;18.632;2023-02-28T04:21:42;101557.97;;;0.00;79.66
71306;BME280;59097;46.858;18.632;2023-02-28T04:24:14;101557.81;;;0.18;79.09
71306;BME280;59097;46.858;18.632;2023-02-28T04:26:45;101559.28;;;0.22;79.47
71306;BME280;59097;46.858;18.632;2023-02-28T04:29:19;101549.75;;;0.21;79.15
71306;BME280;59097;46.858;18.632;2023-02-28T04:31:50;101547.53;;;0.29;79.94
71306;BME280;59097;46.858;18.632;2023-02-28T04:34:22;101526.88;;;0.12;80.20
71306;BME280;59097;46.858;18.632;2023-02-28T04:37:05;101549.97;;;0.18;80.53
71306;BME280;59097;46.858;18.632;2023-02-28T04:39:50;101546.50;;;0.31;80.42
71306;BME280;59097;46.858;18.632;2023-02-28T04:42:35;101533.75;;;0.27;80.13
71306;BME280;59097;46.858;18.632;2023-02-28T04:45:02;101537.09;;;0.29;80.16
71306;BME280;59097;46.858;18.632;2023-02-28T04:47:29;101533.56;;;0.30;80.65
71306;BME280;59097;46.858;18.632;2023-02-28T04:49:56;101524.94;;;0.15;81.47
71306;BME280;59097;46.858;18.632;2023-02-28T04:52:22;101517.91;;;0.16;80.96
71306;BME280;59097;46.858;18.632;2023-02-28T04:54:48;101534.47;;;0.29;81.67
71306;BME280;59097;46.858;18.632;2023-02-28T04:57:21;101536.22;;;0.96;79.24
71306;BME280;59097;46.858;18.632;2023-02-28T04:59:52;101536.22;;;0.96;79.24
71306;BME280;59097;46.858;18.632;2023-02-28T05:02:20;101543.69;;;0.34;82.30
71306;BME280;59097;46.858;18.632;2023-02-28T05:04:48;101544.63;;;0.33;81.96
71306;BME280;59097;46.858;18.632;2023-02-28T05:07:17;101546.41;;;0.33;82.26
71306;BME280;59097;46.858;18.632;2023-02-28T05:09:45;101539.31;;;0.35;82.24
71306;BME280;59097;46.858;18.632;2023-02-28T05:12:12;101536.91;;;0.32;82.19
71306;BME280;59097;46.858;18.632;2023-02-28T05:14:55;101537.09;;;0.29;82.40
71306;BME280;59097;46.858;18.632;2023-02-28T05:17:37;101536.34;;;0.27;82.66
71306;BME280;59097;46.858;18.632;2023-02-28T05:20:31;101533.38;;;0.19;82.84
71306;BME280;59097;46.858;18.632;2023-02-28T05:22:59;101524.72;;;0.18;83.40
71306;BME280;59097;46.858;18.632;2023-02-28T05:25:28;101537.28;;;0.26;83.47
71306;BME280;59097;46.858;18.632;2023-02-28T05:27:54;101539.88;;;0.26;83.14
71306;BME280;59097;46.858;18.632;2023-02-28T05:30:20;101542.59;;;0.24;82.69
71306;BME280;59097;46.858;18.632;2023-02-28T05:33:05;101544.47;;;0.22;83.21
71306;BME280;59097;46.858;18.632;2023-02-28T05:35:41;101533.72;;;0.94;80.71
71306;BME280;59097;46.858;18.632;2023-02-28T05:38:13;101533.72;;;0.94;80.71
71306;BME280;59097;46.858;18.632;2023-02-28T05:40:42;101544.19;;;0.27;83.23
71306;BME280;59097;46.858;18.632;2023-02-28T05:43:11;101546.06;;;0.25;83.07
71306;BME280;59097;46.858;18.632;2023-02-28T05:45:39;101541.75;;;0.24;83.29
71306;BME280;59097;46.858;18.632;2023-02-28T05:48:07;101541.19;;;0.19;83.08
71306;BME280;59097;46.858;18.632;2023-02-28T05:50:35;101527.25;;;0.20;84.10
71306;BME280;59097;46.858;18.632;2023-02-28T05:53:04;101523.75;;;0.33;83.78
71306;BME280;59097;46.858;18.632;2023-02-28T05:55:32;101538.00;;;0.42;82.80
71306;BME280;59097;46.858;18.632;2023-02-28T05:58:16;101540.31;;;0.46;82.51
71306;BME280;59097;46.858;18.632;2023-02-28T06:00:42;101539.50;;;0.46;82.29
71306;BME280;59097;46.858;18.632;2023-02-28T06:03:08;101550.25;;;0.54;81.41
71306;BME280;59097;46.858;18.632;2023-02-28T06:05:35;101551.84;;;0.56;80.85
71306;BME280;59097;46.858;18.632;2023-02-28T06:08:02;101554.44;;;0.56;80.06
71306;BME280;59097;46.858;18.632;2023-02-28T06:10:29;101560.97;;;0.63;79.84
71306;BME280;59097;46.858;18.632;2023-02-28T06:13:03;101556.56;;;0.64;79.27
71306;BME280;59097;46.858;18.632;2023-02-28T06:15:29;101575.91;;;0.88;78.23
71306;BME280;59097;46.858;18.632;2023-02-28T06:17:56;101577.62;;;1.02;77.86
71306;BME280;59097;46.858;18.632;2023-02-28T06:20:29;101576.81;;;1.78;73.60
71306;BME280;59097;46.858;18.632;2023-02-28T06:22:59;101576.81;;;1.78;73.60
71306;BME280;59097;46.858;18.632;2023-02-28T06:25:28;101581.56;;;1.34;76.07
71306;BME280;59097;46.858;18.632;2023-02-28T06:27:57;101587.34;;;1.52;75.30
71306;BME280;59097;46.858;18.632;2023-02-28T06:30:25;101593.63;;;1.49;73.16
71306;BME280;59097;46.858;18.632;2023-02-28T06:32:56;101591.97;;;1.61;73.12
71306;BME280;59097;46.858;18.632;2023-02-28T06:35:26;101597.41;;;1.58;71.91
71306;BME280;59097;46.858;18.632;2023-02-28T06:37:56;101595.31;;;1.63;72.00
71306;BME280;59097;46.858;18.632;2023-02-28T06:40:24;101591.16;;;1.73;72.05
71306;BME280;59097;46.858;18.632;2023-02-28T06:42:52;101597.03;;;1.89;72.37
71306;BME280;59097;46.858;18.632;2023-02-28T06:45:21;101534.34;;;1.50;71.41
71306;BME280;59097;46.858;18.632;2023-02-28T06:48:09;101613.13;;;2.08;70.45
71306;BME280;59097;46.858;18.632;2023-02-28T06:50:51;101616.44;;;1.72;69.32
71306;BME280;59097;46.858;18.632;2023-02-28T06:53:30;101603.69;;;1.68;68.99
71306;BME280;59097;46.858;18.632;2023-02-28T06:55:59;101615.81;;;1.81;69.48
71306;BME280;59097;46.858;18.632;2023-02-28T06:58:48;101616.78;;;1.93;68.99
71306;BME280;59097;46.858;18.632;2023-02-28T07:01:20;101632.34;;;2.07;66.89
71306;BME280;59097;46.858;18.632;2023-02-28T07:03:58;101640.97;;;1.97;66.12
71306;BME280;59097;46.858;18.632;2023-02-28T07:06:37;101636.44;;;2.24;65.65
71306;BME280;59097;46.858;18.632;2023-02-28T07:09:08;101627.78;;;2.11;63.79
71306;BME280;59097;46.858;18.632;2023-02-28T07:11:39;101600.16;;;1.94;63.56
71306;BME280;59097;46.858;18.632;2023-02-28T07:14:14;101632.78;;;2.39;64.49
71306;BME280;59097;46.858;18.632;2023-02-28T07:16:44;101638.41;;;2.45;64.20
71306;BME280;59097;46.858;18.632;2023-02-28T07:19:18;101638.94;;;2.87;63.21
71306;BME280;59097;46.858;18.632;2023-02-28T07:21:46;101638.31;;;2.96;61.88
71306;BME280;59097;46.858;18.632;2023-02-28T07:24:16;101639.69;;;2.02;62.29
71306;BME280;59097;46.858;18.632;2023-02-28T07:26:48;101632.75;;;2.51;63.44
71306;BME280;59097;46.858;18.632;2023-02-28T07:29:28;101641.78;;;2.35;63.08
71306;BME280;59097;46.858;18.632;2023-02-28T07:31:57;101648.88;;;2.33;62.82
71306;BME280;59097;46.858;18.632;2023-02-28T07:34:25;101645.34;;;2.21;64.26
71306;BME280;59097;46.858;18.632;2023-02-28T07:36:54;101647.56;;;2.27;64.71
71306;BME280;59097;46.858;18.632;2023-02-28T07:39:22;101645.66;;;2.29;64.53
71306;BME280;59097;46.858;18.632;2023-02-28T07:41:51;101634.13;;;2.44;64.88
71306;BME280;59097;46.858;18.632;2023-02-28T07:44:24;101643.75;;;2.44;65.47
71306;BME280;59097;46.858;18.632;2023-02-28T07:46:55;101602.00;;;1.92;65.89
71306;BME280;59097;46.858;18.632;2023-02-28T07:49:27;101634.44;;;2.15;65.66
71306;BME280;59097;46.858;18.632;2023-02-28T07:51:57;101557.44;;;2.06;65.47
71306;BME280;59097;46.858;18.632;2023-02-28T07:54:25;101631.06;;;2.63;65.30
71306;BME280;59097;46.858;18.632;2023-02-28T07:56:53;101569.19;;;1.75;67.22
71306;BME280;59097;46.858;18.632;2023-02-28T07:59:22;101635.69;;;2.47;66.53
71306;BME280;59097;46.858;18.632;2023-02-28T08:01:50;101633.63;;;2.14;66.78
71306;BME280;59097;46.858;18.632;2023-02-28T08:04:19;101630.16;;;2.26;67.63
71306;BME280;59097;46.858;18.632;2023-02-28T08:06:47;101594.81;;;1.83;68.35
71306;BME280;59097;46.858;18.632;2023-02-28T08:09:15;101623.78;;;2.18;68.69
71306;BME280;59097;46.858;18.632;2023-02-28T08:11:43;101631.41;;;2.33;69.13
71306;BME280;59097;46.858;18.632;2023-02-28T08:14:12;101630.50;;;2.22;68.56
71306;BME280;59097;46.858;18.632;2023-02-28T08:16:40;101624.41;;;2.34;69.38
71306;BME280;59097;46.858;18.632;2023-02-28T08:19:10;101629.97;;;2.29;69.48
71306;BME280;59097;46.858;18.632;2023-02-28T08:21:38;101567.91;;;2.06;69.58
71306;BME280;59097;46.858;18.632;2023-02-28T08:24:06;101636.13;;;2.28;69.99
71306;BME280;59097;46.858;18.632;2023-02-28T08:26:39;101629.31;;;2.38;69.18
71306;BME280;59097;46.858;18.632;2023-02-28T08:29:40;101631.84;;;2.40;69.59
71306;BME280;59097;46.858;18.632;2023-02-28T08:32:36;101634.41;;;2.65;69.56
71306;BME280;59097;46.858;18.632;2023-02-28T08:39:15;101625.81;;;2.50;70.42
71306;BME280;59097;46.858;18.632;2023-02-28T08:41:46;101586.69;;;2.49;70.39
71306;BME280;59097;46.858;18.632;2023-02-28T08:44:25;101623.09;;;2.65;69.31
71306;BME280;59097;46.858;18.632;2023-02-28T08:46:55;101591.66;;;2.16;68.56
71306;BME280;59097;46.858;18.632;2023-02-28T08:49:24;101622.12;;;2.04;69.59
71306;BME280;59097;46.858;18.632;2023-02-28T08:52:28;101625.03;;;2.12;71.73
71306;BME280;59097;46.858;18.632;2023-02-28T08:54:58;101623.19;;;1.89;71.49
71306;BME280;59097;46.858;18.632;2023-02-28T08:57:26;101623.78;;;1.92;71.57
71306;BME280;59097;46.858;18.632;2023-02-28T08:59:55;101596.91;;;1.90;71.45
71306;BME280;59097;46.858;18.632;2023-02-28T09:05:36;101634.00;;;2.46;69.73
71306;BME280;59097;46.858;18.632;2023-02-28T09:08:07;101634.41;;;2.65;70.00
71306;BME280;59097;46.858;18.632;2023-02-28T09:10:35;101576.22;;;2.36;69.27
71306;BME280;59097;46.858;18.632;2023-02-28T09:13:03;101633.34;;;3.04;70.12
71306;BME280;59097;46.858;18.632;2023-02-28T09:15:31;101625.88;;;3.10;68.49
71306;BME280;59097;46.858;18.632;2023-02-28T09:18:02;101629.53;;;3.08;67.01
71306;BME280;59097;46.858;18.632;2023-02-28T09:20:30;101626.25;;;2.93;67.44
71306;BME280;59097;46.858;18.632;2023-02-28T09:22:59;101615.94;;;3.03;67.87
71306;BME280;59097;46.858;18.632;2023-02-28T09:25:27;101597.91;;;3.22;68.39
71306;BME280;59097;46.858;18.632;2023-02-28T09:27:56;101626.75;;;3.22;67.58
71306;BME280;59097;46.858;18.632;2023-02-28T09:30:24;101631.81;;;3.36;67.81
71306;BME280;59097;46.858;18.632;2023-02-28T09:33:20;101623.75;;;3.50;67.58
71306;BME280;59097;46.858;18.632;2023-02-28T09:35:50;101630.88;;;3.37;66.73
71306;BME280;59097;46.858;18.632;2023-02-28T09:38:19;101631.41;;;3.30;65.72
71306;BME280;59097;46.858;18.632;2023-02-28T09:40:53;101634.59;;;3.46;66.65
71306;BME280;59097;46.858;18.632;2023-02-28T09:43:30;101622.75;;;3.40;65.97
71306;BME280;59097;46.858;18.632;2023-02-28T09:48:50;101624.69;;;3.73;65.61
71306;BME280;59097;46.858;18.632;2023-02-28T09:51:34;101626.97;;;3.77;65.58
71306;BME280;59097;46.858;18.632;2023-02-28T09:54:21;101623.63;;;3.87;65.88
71306;BME280;59097;46.858;18.632;2023-02-28T09:59:45;101635.59;;;4.13;64.93
71306;BME280;59097;46.858;18.632;2023-02-28T10:05:27;101628.22;;;4.51;63.10
71306;BME280;59097;46.858;18.632;2023-02-28T10:09:00;101640.13;;;4.77;64.14
71306;BME280;59097;46.858;18.632;2023-02-28T10:11:26;101627.13;;;4.54;61.93
71306;BME280;59097;46.858;18.632;2023-02-28T10:14:15;101631.31;;;4.45;62.82
71306;BME280;59097;46.858;18.632;2023-02-28T10:16:52;101628.56;;;4.69;62.86
71306;BME280;59097;46.858;18.632;2023-02-28T10:19:55;101632.34;;;4.87;63.52
71306;BME280;59097;46.858;18.632;2023-02-28T10:25:37;101635.06;;;4.96;64.32
71306;BME280;59097;46.858;18.632;2023-02-28T10:28:15;101637.44;;;4.99;62.62
71306;BME280;59097;46.858;18.632;2023-02-28T10:30:52;101619.63;;;5.66;61.07
71306;BME280;59097;46.858;18.632;2023-02-28T10:33:31;101625.44;;;5.49;60.44
71306;BME280;59097;46.858;18.632;2023-02-28T10:36:04;101626.06;;;5.42;60.73
71306;BME280;59097;46.858;18.632;2023-02-28T10:38:39;101635.59;;;5.22;60.35
71306;BME280;59097;46.858;18.632;2023-02-28T10:41:15;101628.06;;;5.70;62.97
71306;BME280;59097;46.858;18.632;2023-02-28T10:43:44;101624.34;;;5.31;60.92
71306;BME280;59097;46.858;18.632;2023-02-28T10:46:19;101635.62;;;5.11;61.32
71306;BME280;59097;46.858;18.632;2023-02-28T10:49:23;101630.41;;;4.89;61.43
71306;BME280;59097;46.858;18.632;2023-02-28T10:51:59;101634.72;;;4.90;61.91
71306;BME280;59097;46.858;18.632;2023-02-28T10:54:34;101631.19;;;4.35;63.68
71306;BME280;59097;46.858;18.632;2023-02-28T10:57:21;101632.16;;;4.57;64.30
71306;BME280;59097;46.858;18.632;2023-02-28T11:00:34;101620.34;;;5.05;63.46
71306;BME280;59097;46.858;18.632;2023-02-28T11:05:51;101606.56;;;5.24;63.68
71306;BME280;59097;46.858;18.632;2023-02-28T11:08:18;101602.09;;;5.24;62.56
71306;BME280;59097;46.858;18.632;2023-02-28T11:10:47;101596.19;;;5.11;62.71
71306;BME280;59097;46.858;18.632;2023-02-28T11:13:21;101596.28;;;5.21;62.58
71306;BME280;59097;46.858;18.632;2023-02-28T11:15:58;101585.56;;;5.01;62.87
71306;BME280;59097;46.858;18.632;2023-02-28T11:18:46;101587.03;;;5.05;64.17
71306;BME280;59097;46.858;18.632;2023-02-28T11:21:26;101586.00;;;5.18;64.43
71306;BME280;59097;46.858;18.632;2023-02-28T11:24:05;101567.22;;;5.84;60.75
71306;BME280;59097;46.858;18.632;2023-02-28T11:26:47;101567.22;;;5.84;60.75
71306;BME280;59097;46.858;18.632;2023-02-28T11:34:38;101566.72;;;4.96;63.93
71306;BME280;59097;46.858;18.632;2023-02-28T11:37:18;101567.28;;;5.32;64.99
71306;BME280;59097;46.858;18.632;2023-02-28T11:39:48;101562.87;;;5.32;65.14
71306;BME280;59097;46.858;18.632;2023-02-28T11:42:43;101566.59;;;5.30;64.48
71306;BME280;59097;46.858;18.632;2023-02-28T11:45:49;101564.75;;;5.41;63.67
71306;BME280;59097;46.858;18.632;2023-02-28T11:51:13;101564.41;;;5.35;64.28
71306;BME280;59097;46.858;18.632;2023-02-28T11:56:39;101550.56;;;5.33;64.16
71306;BME280;59097;46.858;18.632;2023-02-28T12:02:22;101543.88;;;5.08;64.73
71306;BME280;59097;46.858;18.632;2023-02-28T12:10:26;101541.72;;;5.34;65.52
71306;BME280;59097;46.858;18.632;2023-02-28T12:18:38;101536.84;;;4.97;65.62
71306;BME280;59097;46.858;18.632;2023-02-28T12:26:48;101523.47;;;5.00;65.40
71306;BME280;59097;46.858;18.632;2023-02-28T12:32:05;101517.06;;;5.14;65.00
71306;BME280;59097;46.858;18.632;2023-02-28T12:34:41;101514.19;;;5.38;65.43
71306;BME280;59097;46.858;18.632;2023-02-28T12:37:17;101510.38;;;5.10;65.04
71306;BME280;59097;46.858;18.632;2023-02-28T12:39:53;101504.72;;;4.94;65.35
71306;BME280;59097;46.858;18.632;2023-02-28T12:42:45;101509.59;;;4.98;65.51
71306;BME280;59097;46.858;18.632;2023-02-28T12:45:40;101506.28;;;5.17;65.57
71306;BME280;59097;46.858;18.632;2023-02-28T12:48:24;101509.56;;;5.30;67.61
71306;BME280;59097;46.858;18.632;2023-02-28T12:50:54;101515.91;;;5.07;65.68
71306;BME280;59097;46.858;18.632;2023-02-28T12:53:40;101497.75;;;5.25;66.25
71306;BME280;59097;46.858;18.632;2023-02-28T12:56:44;101503.38;;;4.99;66.83
71306;BME280;59097;46.858;18.632;2023-02-28T12:59:23;101497.81;;;4.93;65.93
71306;BME280;59097;46.858;18.632;2023-02-28T13:02:21;101499.22;;;4.97;66.24
71306;BME280;59097;46.858;18.632;2023-02-28T13:04:56;101505.25;;;4.88;66.62
71306;BME280;59097;46.858;18.632;2023-02-28T13:07:41;101501.25;;;4.93;66.84
71306;BME280;59097;46.858;18.632;2023-02-28T13:10:23;101498.44;;;4.85;65.83
71306;BME280;59097;46.858;18.632;2023-02-28T13:12:53;101505.34;;;4.86;66.91
71306;BME280;59097;46.858;18.632;2023-02-28T13:15:27;101497.56;;;4.64;67.36
71306;BME280;59097;46.858;18.632;2023-02-28T13:18:00;101489.09;;;4.92;66.46
71306;BME280;59097;46.858;18.632;2023-02-28T13:20:34;101492.56;;;4.93;67.04
71306;BME280;59097;46.858;18.632;2023-02-28T13:23:03;101487.41;;;4.91;65.85
71306;BME280;59097;46.858;18.632;2023-02-28T13:25:53;101478.56;;;4.92;66.44
71306;BME280;59097;46.858;18.632;2023-02-28T13:31:31;101487.47;;;4.80;66.42
71306;BME280;59097;46.858;18.632;2023-02-28T13:34:15;101478.13;;;4.87;67.29
71306;BME280;59097;46.858;18.632;2023-02-28T13:36:42;101473.94;;;4.53;66.73
71306;BME280;59097;46.858;18.632;2023-02-28T13:42:30;101471.19;;;4.86;66.91
71306;BME280;59097;46.858;18.632;2023-02-28T13:47:43;101479.31;;;4.83;67.35
71306;BME280;59097;46.858;18.632;2023-02-28T13:55:46;101484.53;;;4.94;66.68
71306;BME280;59097;46.858;18.632;2023-02-28T14:06:26;101482.53;;;4.55;67.33
71306;BME280;59097;46.858;18.632;2023-02-28T14:11:37;101480.50;;;4.47;67.65
71306;BME280;59097;46.858;18.632;2023-02-28T14:14:09;101475.38;;;4.57;67.54
71306;BME280;59097;46.858;18.632;2023-02-28T14:16:57;101470.31;;;4.65;66.94
71306;BME280;59097;46.858;18.632;2023-02-28T14:19:27;101465.06;;;4.65;66.63
71306;BME280;59097;46.858;18.632;2023-02-28T14:22:12;101457.84;;;4.47;67.70
71306;BME280;59097;46.858;18.632;2023-02-28T14:25:13;101484.75;;;4.71;67.24
71306;BME280;59097;46.858;18.632;2023-02-28T14:33:45;101481.03;;;4.41;68.44
71306;BME280;59097;46.858;18.632;2023-02-28T14:36:33;101474.34;;;4.37;68.53
71306;BME280;59097;46.858;18.632;2023-02-28T14:39:06;101475.88;;;4.51;68.82
71306;BME280;59097;46.858;18.632;2023-02-28T14:41:35;101466.56;;;4.47;68.64
71306;BME280;59097;46.858;18.632;2023-02-28T14:44:24;101437.34;;;4.29;67.54
71306;BME280;59097;46.858;18.632;2023-02-28T14:47:11;101463.34;;;4.43;68.28
71306;BME280;59097;46.858;18.632;2023-02-28T14:50:17;101402.59;;;4.05;68.98
71306;BME280;59097;46.858;18.632;2023-02-28T14:52:56;101455.62;;;4.94;66.11
71306;BME280;59097;46.858;18.632;2023-02-28T14:55:28;101455.62;;;4.94;66.11
71306;BME280;59097;46.858;18.632;2023-02-28T14:58:06;101451.22;;;4.31;67.93
71306;BME280;59097;46.858;18.632;2023-02-28T15:00:49;101454.41;;;4.35;67.75
71306;BME280;59097;46.858;18.632;2023-02-28T15:03:38;101449.16;;;4.35;68.28
71306;BME280;59097;46.858;18.632;2023-02-28T15:06:13;101452.25;;;4.40;68.90
71306;BME280;59097;46.858;18.632;2023-02-28T15:08:42;101450.16;;;4.23;69.08
71306;BME280;59097;46.858;18.632;2023-02-28T15:11:16;101440.09;;;4.39;68.59
71306;BME280;59097;46.858;18.632;2023-02-28T15:13:58;101444.59;;;4.37;68.36
71306;BME280;59097;46.858;18.632;2023-02-28T15:16:43;101449.75;;;4.38;67.91
71306;BME280;59097;46.858;18.632;2023-02-28T15:19:19;101448.06;;;4.49;68.04
71306;BME280;59097;46.858;18.632;2023-02-28T15:22:20;101452.94;;;4.42;68.54
71306;BME280;59097;46.858;18.632;2023-02-28T15:24:51;101445.66;;;4.45;68.48